Time;durP1;ratioP1;P1;durP2;ratioP2;P2;SDS_P1;SDS_P2;PMS_P1;PMS_P2;Temp;Humidity;BMP_temperature;BMP_pressure;BME280_temperature;BME280_humidity;BME280_pressure;Samples;Min_cycle;Max_cycle;Signal;HPM_P1;HPM_P2
2021/10/04 00:01:54;;;;;;;21.80;15.90;;;;;;;7.18;69.96;100910.44;1681467;83;21564;-60
2021/10/04 00:04:21;;;;;;;22.82;17.00;;;;;;;7.15;70.09;100913.52;1677200;83;21602;-61
2021/10/04 00:06:49;;;;;;;23.95;16.82;;;;;;;7.09;70.37;100913.12;1679147;83;21111;-62
2021/10/04 00:09:17;;;;;;;20.65;16.97;;;;;;;7.06;70.34;100912.28;1687994;82;21532;-61
2021/10/04 00:11:44;;;;;;;20.20;14.83;;;;;;;7.05;70.17;100906.64;1689668;83;20988;-62
2021/10/04 00:14:11;;;;;;;20.92;14.73;;;;;;;7.10;70.33;100909.64;1684304;83;21549;-62
2021/10/04 00:16:39;;;;;;;18.17;14.38;;;;;;;7.21;70.20;100910.42;1683484;83;21599;-61
2021/10/04 00:19:07;;;;;;;23.22;16.30;;;;;;;7.26;70.04;100901.20;1687928;82;21556;-63
2021/10/04 00:21:34;;;;;;;18.65;14.43;;;;;;;7.26;69.80;100892.50;1685208;84;21635;-61
2021/10/04 00:24:01;;;;;;;21.25;15.72;;;;;;;7.21;69.75;100888.19;1687369;83;21564;-61
2021/10/04 00:26:27;;;;;;;22.98;16.12;;;;;;;7.16;69.52;100889.97;1729036;81;21141;-63
2021/10/04 00:28:54;;;;;;;24.35;17.12;;;;;;;7.10;69.32;100893.06;1735587;81;21498;-60
2021/10/04 00:31:20;;;;;;;19.65;14.95;;;;;;;7.04;69.14;100886.58;1727456;81;22098;-63
2021/10/04 00:33:47;;;;;;;22.62;16.60;;;;;;;7.04;69.50;100884.83;1720046;80;21531;-62
2021/10/04 00:36:15;;;;;;;23.50;16.73;;;;;;;7.14;69.59;100884.30;1717207;81;21508;-61
2021/10/04 00:38:43;;;;;;;24.32;18.02;;;;;;;7.18;69.65;100887.34;1725574;81;21541;-61
2021/10/04 00:41:10;;;;;;;23.00;17.77;;;;;;;7.19;69.61;100887.75;1719982;81;21467;-62
2021/10/04 00:43:37;;;;;;;22.25;18.90;;;;;;;7.18;69.58;100879.49;1719530;81;22034;-62
2021/10/04 00:46:03;;;;;;;25.70;18.90;;;;;;;7.20;69.40;100879.03;1720512;81;20932;-63
2021/10/04 00:48:30;;;;;;;22.37;18.70;;;;;;;7.16;69.15;100881.26;1729404;81;21029;-61
2021/10/04 00:50:57;;;;;;;24.70;17.47;;;;;;;7.11;69.00;100873.44;1720933;81;22190;-62
2021/10/04 00:53:24;;;;;;;26.25;17.00;;;;;;;7.07;69.37;100874.80;1726848;80;21410;-62
2021/10/04 00:55:51;;;;;;;20.43;16.30;;;;;;;7.13;69.57;100876.05;1729246;81;21760;-61
2021/10/04 00:58:17;;;;;;;21.68;17.62;;;;;;;7.14;69.16;100872.53;1728872;81;21545;-61
2021/10/04 01:00:44;;;;;;;20.45;16.48;;;;;;;7.11;68.84;100872.58;1723402;80;21456;-60
2021/10/04 01:03:10;;;;;;;23.35;18.07;;;;;;;7.05;68.64;100880.48;1725387;81;21061;-61
2021/10/04 01:05:37;;;;;;;28.47;17.50;;;;;;;7.01;68.42;100879.64;1723633;80;21583;-60
2021/10/04 01:08:05;;;;;;;21.57;17.95;;;;;;;6.97;68.23;100880.11;1729499;81;21666;-60
2021/10/04 01:10:31;;;;;;;;;;;;;;;6.96;68.23;100879.66;1721404;81;21500;-60
2021/10/04 01:12:58;;;;;;;21.87;19.23;;;;;;;6.89;68.31;100882.34;1731048;81;20516;-60
2021/10/04 01:15:24;;;;;;;25.32;17.85;;;;;;;6.77;68.54;100889.40;1730144;81;21443;-60
2021/10/04 01:17:51;;;;;;;20.62;16.35;;;;;;;6.76;69.56;100893.33;1727670;81;21550;-59
2021/10/04 01:20:21;;;;;;;22.22;16.55;;;;;;;6.85;70.01;100881.94;1727572;81;21408;-61
2021/10/04 01:22:48;;;;;;;20.80;15.68;;;;;;;6.91;69.69;100880.58;1726975;81;21480;-60
2021/10/04 01:25:15;;;;;;;19.55;15.55;;;;;;;6.88;69.27;100879.31;1717185;81;21530;-60
2021/10/04 01:27:42;;;;;;;22.17;17.45;;;;;;;6.80;69.03;100884.61;1735882;79;21524;-60
2021/10/04 01:30:10;;;;;;;21.35;16.65;;;;;;;6.70;69.04;100888.15;1728132;80;21523;-60
2021/10/04 01:32:37;;;;;;;25.88;18.25;;;;;;;6.65;68.88;100894.73;1679966;83;25554;-61
2021/10/04 01:35:05;;;;;;;25.20;17.80;;;;;;;6.62;68.95;100889.52;1736768;81;21444;-60
2021/10/04 01:37:33;;;;;;;25.08;16.12;;;;;;;6.54;68.96;100894.78;1730343;81;21495;-61
2021/10/04 01:39:59;;;;;;;19.82;15.25;;;;;;;6.53;69.17;100892.18;1722570;81;21537;-59
2021/10/04 01:42:26;;;;;;;22.58;17.02;;;;;;;6.62;69.33;100896.91;1732171;81;21533;-60
2021/10/04 01:44:52;;;;;;;18.52;16.37;;;;;;;6.63;69.07;100891.26;1729143;81;21869;-60
2021/10/04 01:47:19;;;;;;;20.32;17.62;;;;;;;6.57;69.08;100897.39;1733076;80;21626;-60
2021/10/04 01:49:47;;;;;;;22.42;18.48;;;;;;;6.52;69.36;100894.37;1741040;81;21487;-59
2021/10/04 01:52:13;;;;;;;22.95;18.35;;;;;;;6.50;69.51;100898.72;1729078;81;21508;-61
2021/10/04 01:54:40;;;;;;;27.87;19.32;;;;;;;6.47;69.62;100903.53;1723960;81;21578;-61
2021/10/04 01:57:07;;;;;;;22.90;17.07;;;;;;;6.43;69.63;100900.52;1724419;81;21696;-60
2021/10/04 01:59:35;;;;;;;23.42;15.80;;;;;;;6.45;70.06;100901.82;1729501;81;20996;-61
2021/10/04 02:02:02;;;;;;;19.13;16.40;;;;;;;6.56;70.51;100907.41;1731330;81;21585;-60
2021/10/04 02:04:29;;;;;;;19.90;16.85;;;;;;;6.62;70.51;100903.44;1738276;81;21586;-60
2021/10/04 02:06:56;;;;;;;21.62;16.73;;;;;;;6.63;70.69;100912.17;1730023;81;21038;-63
2021/10/04 02:09:22;;;;;;;26.02;18.00;;;;;;;6.61;70.65;100906.95;1729215;81;21783;-60
2021/10/04 02:11:49;;;;;;;25.20;17.50;;;;;;;6.60;70.44;100906.95;1730337;81;21495;-61
2021/10/04 02:14:17;;;;;;;21.93;19.02;;;;;;;6.57;70.46;100903.92;1731689;81;21495;-61
2021/10/04 02:16:44;;;;;;;21.83;17.20;;;;;;;6.55;70.62;100910.88;1738214;81;20975;-60
2021/10/04 02:19:13;;;;;;;26.25;16.87;;;;;;;6.61;71.02;100912.17;1733574;81;21606;-60
2021/10/04 02:21:41;;;;;;;29.15;17.42;;;;;;;6.78;70.94;100917.28;1724772;81;21562;-60
2021/10/04 02:24:09;;;;;;;22.27;15.78;;;;;;;6.83;70.76;100914.63;1722687;81;21535;-60
2021/10/04 02:26:36;;;;;;;21.50;16.80;;;;;;;6.83;70.72;100925.94;1736481;81;21429;-60
2021/10/04 02:29:02;;;;;;;22.58;16.82;;;;;;;6.81;70.57;100921.17;1738925;81;21003;-60
2021/10/04 02:31:30;;;;;;;22.42;17.12;;;;;;;6.81;70.32;100924.23;1721722;82;21558;-60
2021/10/04 02:33:56;;;;;;;28.12;17.67;;;;;;;6.75;70.04;100918.61;1703952;82;21467;-60
2021/10/04 02:36:24;;;;;;;22.85;15.90;;;;;;;6.69;69.81;100914.73;1722946;82;21563;-60
2021/10/04 02:38:52;;;;;;;19.60;15.40;;;;;;;6.67;69.92;100918.22;1714532;82;21050;-61
2021/10/04 02:41:19;;;;;;;20.90;15.85;;;;;;;6.76;69.74;100915.55;1711841;82;21587;-60
2021/10/04 02:43:45;;;;;;;21.23;16.93;;;;;;;6.75;69.54;100922.52;1710483;82;20934;-59
2021/10/04 02:46:13;;;;;;;25.97;17.70;;;;;;;6.72;69.21;100924.29;1709493;82;22015;-59
2021/10/04 02:48:39;;;;;;;23.40;16.62;;;;;;;6.61;68.93;100920.42;1715417;82;21919;-60
2021/10/04 02:51:06;;;;;;;24.12;18.32;;;;;;;6.52;68.96;100921.37;1709528;82;20949;-59
2021/10/04 02:53:33;;;;;;;22.73;17.32;;;;;;;6.45;68.98;100918.80;1708529;82;21490;-59
2021/10/04 02:55:59;;;;;;;20.25;18.02;;;;;;;6.40;68.95;100913.17;1721148;82;21558;-60
2021/10/04 02:58:26;;;;;;;22.87;16.60;;;;;;;6.33;68.85;100921.02;1711193;82;21897;-59
2021/10/04 03:00:53;;;;;;;20.90;17.00;;;;;;;6.33;68.97;100918.41;1703022;82;21428;-59
2021/10/04 03:03:19;;;;;;;22.77;17.02;;;;;;;6.40;69.04;100914.89;1707219;82;21499;-59
2021/10/04 03:05:46;;;;;;;27.30;19.52;;;;;;;6.39;69.00;100918.40;1711177;82;21564;-59
2021/10/04 03:08:12;;;;;;;23.12;18.85;;;;;;;6.32;68.97;100924.08;1709971;82;21583;-59
2021/10/04 03:10:39;;;;;;;25.00;19.92;;;;;;;6.29;69.20;100928.45;1714383;82;21550;-59
2021/10/04 03:13:06;;;;;;;26.23;19.67;;;;;;;6.25;69.11;100923.67;1705728;82;21572;-61
2021/10/04 03:15:33;;;;;;;33.98;19.70;;;;;;;6.18;69.23;100924.16;1721306;82;21515;-59
2021/10/04 03:18:01;;;;;;;28.52;18.98;;;;;;;6.13;69.22;100928.96;1717557;81;21495;-59
2021/10/04 03:20:28;;;;;;;25.80;17.75;;;;;;;6.10;69.58;100927.66;1710682;81;21539;-59
2021/10/04 03:22:56;;;;;;;23.18;17.27;;;;;;;6.22;69.80;100923.70;1708071;82;22131;-59
2021/10/04 03:25:23;;;;;;;22.48;17.70;;;;;;;6.24;69.73;100940.23;1707704;82;21514;-59
2021/10/04 03:27:50;;;;;;;25.15;18.55;;;;;;;6.19;69.81;100934.16;1713958;82;21034;-59
2021/10/04 03:30:17;;;;;;;26.10;17.27;;;;;;;6.19;69.92;100936.77;1720925;81;21559;-59
2021/10/04 03:32:44;;;;;;;26.20;18.77;;;;;;;6.19;69.71;100932.84;1731637;81;21575;-59
2021/10/04 03:35:11;;;;;;;23.20;18.03;;;;;;;6.20;69.55;100937.21;1734704;81;21732;-59
2021/10/04 03:37:37;;;;;;;27.70;18.85;;;;;;;6.17;69.42;100936.77;1734587;81;21485;-59
2021/10/04 03:40:06;;;;;;;23.90;17.37;;;;;;;6.13;69.29;100940.27;1731746;81;21534;-59
2021/10/04 03:42:32;;;;;;;;;;;;;;;6.14;69.51;100942.02;1744160;80;21550;-62
2021/10/04 03:44:58;;;;;;;27.98;17.17;;;;;;;6.20;69.69;100942.44;1731660;81;20425;-59
2021/10/04 03:47:25;;;;;;;25.60;16.85;;;;;;;6.19;69.39;100948.52;1725452;81;22095;-59
2021/10/04 03:49:52;;;;;;;27.13;17.10;;;;;;;6.13;69.55;100945.94;1732695;81;21428;-59
2021/10/04 03:52:18;;;;;;;22.90;16.75;;;;;;;6.12;69.58;100954.22;1726772;81;21010;-59
2021/10/04 03:54:45;;;;;;;24.02;17.10;;;;;;;6.09;69.51;100955.97;1730225;81;21590;-59
2021/10/04 03:57:12;;;;;;;23.42;16.40;;;;;;;6.06;69.44;100954.22;1729545;81;21559;-59
2021/10/04 03:59:39;;;;;;;22.40;15.78;;;;;;;6.02;69.35;100951.19;1730657;81;21797;-59
2021/10/04 04:02:06;;;;;;;24.85;15.72;;;;;;;6.02;69.54;100950.74;1727013;81;21929;-59
2021/10/04 04:04:34;;;;;;;24.67;18.42;;;;;;;6.11;69.50;100950.30;1738825;81;21472;-59
2021/10/04 04:07:00;;;;;;;32.07;20.50;;;;;;;6.09;69.36;100949.44;1742549;81;21566;-59
2021/10/04 04:09:27;;;;;;;31.97;22.13;;;;;;;6.01;69.37;100950.33;1738279;81;21227;-60
2021/10/04 04:11:53;;;;;;;33.10;23.27;;;;;;;5.95;69.34;100948.13;1728684;81;22016;-59
2021/10/04 04:14:20;;;;;;;34.75;23.30;;;;;;;5.89;69.45;100955.98;1728158;81;21507;-59
2021/10/04 04:16:46;;;;;;;31.07;21.90;;;;;;;5.82;69.40;100960.34;1746461;81;21622;-60
2021/10/04 04:19:13;;;;;;;25.40;19.35;;;;;;;5.77;69.42;100962.11;1720939;81;21530;-59
2021/10/04 04:21:42;;;;;;;22.82;17.87;;;;;;;5.76;69.92;100967.74;1736759;81;21566;-60
2021/10/04 04:24:10;;;;;;;25.48;18.23;;;;;;;5.89;70.10;100965.98;1730946;81;21942;-61
2021/10/04 04:26:37;;;;;;;28.32;17.60;;;;;;;5.94;70.15;100969.45;1736258;81;21476;-59
2021/10/04 04:29:04;;;;;;;22.13;16.70;;;;;;;5.97;70.28;100977.73;1738909;81;21471;-59
2021/10/04 04:31:31;;;;;;;25.68;18.02;;;;;;;5.98;70.33;100979.48;1738209;81;21050;-59
2021/10/04 04:33:57;;;;;;;23.80;17.62;;;;;;;6.00;70.34;100985.58;1728601;81;21518;-58
2021/10/04 04:36:24;;;;;;;17.82;14.43;;;;;;;6.01;70.45;100980.80;1730367;81;22041;-58
2021/10/04 04:38:51;;;;;;;17.50;14.05;;;;;;;6.09;70.76;100980.33;1739999;80;21555;-59
2021/10/04 04:43:55;;;;;;;23.45;16.02;;;;;;;6.39;70.67;100985.87;1770571;79;23226;-60
2021/10/04 04:46:22;;;;;;;20.85;15.23;;;;;;;6.35;70.61;100982.85;1732914;81;21526;-60
2021/10/04 04:48:48;;;;;;;26.15;15.65;;;;;;;6.39;70.54;100981.09;1734005;80;22502;-60
2021/10/04 04:51:15;;;;;;;22.30;14.83;;;;;;;6.39;70.36;100981.95;1732306;81;20994;-60
2021/10/04 04:53:45;;;;;;;20.85;15.23;;;;;;;6.40;70.33;100985.02;1729084;80;21590;-59
2021/10/04 04:56:12;;;;;;;26.57;15.95;;;;;;;6.39;70.14;100976.73;1729244;81;21577;-59
2021/10/04 04:58:38;;;;;;;19.82;14.33;;;;;;;6.40;70.07;100976.28;1736597;80;21436;-59
2021/10/04 05:01:05;;;;;;;18.40;13.85;;;;;;;6.46;70.35;100968.44;1723903;81;21694;-60
2021/10/04 05:03:32;;;;;;;20.20;15.03;;;;;;;6.61;70.29;100974.89;1732997;80;21495;-60
2021/10/04 05:05:59;;;;;;;22.82;15.85;;;;;;;6.62;69.97;100972.69;1737678;80;21447;-59
2021/10/04 05:08:26;;;;;;;20.32;16.02;;;;;;;6.60;69.96;100976.20;1734758;81;21615;-60
2021/10/04 05:10:52;;;;;;;27.85;17.02;;;;;;;6.56;69.81;100975.34;1728903;80;21561;-60
2021/10/04 05:13:19;;;;;;;20.35;16.05;;;;;;;6.55;69.75;100977.96;1723085;80;22096;-61
2021/10/04 05:15:46;;;;;;;23.42;18.25;;;;;;;6.50;69.55;100974.08;1736650;80;21053;-59
2021/10/04 05:18:12;;;;;;;22.75;17.23;;;;;;;6.46;69.52;100978.90;1723349;81;21514;-59
2021/10/04 05:20:39;;;;;;;22.77;16.17;;;;;;;6.45;69.81;100982.37;1730889;81;21518;-60
2021/10/04 05:23:05;;;;;;;21.55;15.95;;;;;;;6.57;69.95;100986.66;1742777;80;21507;-59
2021/10/04 05:25:32;;;;;;;22.27;17.32;;;;;;;6.58;69.81;100985.35;1729078;81;21819;-60
2021/10/04 05:27:59;;;;;;;24.85;17.30;;;;;;;6.55;69.77;100977.52;1741352;80;21590;-60
2021/10/04 05:30:26;;;;;;;24.87;16.30;;;;;;;6.52;69.76;100980.61;1725120;81;21589;-62
2021/10/04 05:32:55;;;;;;;21.25;15.68;;;;;;;6.51;69.78;100978.86;1737214;80;21588;-60
2021/10/04 05:35:24;;;;;;;22.10;16.75;;;;;;;6.50;69.84;100983.64;1734555;81;21451;-60
2021/10/04 05:37:51;;;;;;;19.62;13.55;;;;;;;6.48;69.80;100985.39;1737493;80;21505;-60
2021/10/04 05:40:18;;;;;;;18.42;14.20;;;;;;;6.51;69.99;100992.78;1729976;81;21616;-60
2021/10/04 05:42:44;;;;;;;16.05;13.93;;;;;;;6.66;70.05;101004.91;1730769;80;21504;-60
2021/10/04 05:45:13;;;;;;;19.32;13.98;;;;;;;6.71;69.86;100998.38;1737593;81;21022;-60
2021/10/04 05:47:39;;;;;;;19.57;13.88;;;;;;;6.72;69.77;101004.02;1730494;81;21578;-60
2021/10/04 05:50:10;;;;;;;18.87;14.40;;;;;;;6.73;69.65;101004.01;1736910;80;21838;-59
2021/10/04 05:52:37;;;;;;;18.57;13.98;;;;;;;6.74;69.62;101005.77;1721543;81;21522;-62
2021/10/04 05:55:05;;;;;;;20.12;13.80;;;;;;;6.76;69.43;101010.95;1729477;81;21042;-60
2021/10/04 05:57:32;;;;;;;17.02;12.47;;;;;;;6.77;69.39;101005.73;1731923;81;21554;-59
2021/10/04 05:59:58;;;;;;;15.75;12.23;;;;;;;6.85;69.69;101012.22;1724486;81;21475;-58
2021/10/04 06:02:25;;;;;;;17.30;13.22;;;;;;;7.04;69.56;101012.11;1735005;80;21835;-61
2021/10/04 06:04:52;;;;;;;17.42;14.10;;;;;;;7.14;69.53;101009.84;1724389;81;21732;-62
2021/10/04 06:07:19;;;;;;;19.85;14.15;;;;;;;7.19;69.49;101009.39;1734637;81;21514;-62
2021/10/04 06:09:46;;;;;;;18.35;14.07;;;;;;;7.24;69.49;101003.69;1740379;81;21641;-61
2021/10/04 06:12:12;;;;;;;20.40;13.50;;;;;;;7.30;69.39;101010.63;1733265;80;20983;-62
2021/10/04 06:14:39;;;;;;;20.47;15.03;;;;;;;7.36;69.24;101012.73;1722103;80;21950;-61
2021/10/04 06:17:06;;;;;;;17.42;14.93;;;;;;;7.41;68.94;101012.27;1732623;80;21677;-63
2021/10/04 06:19:33;;;;;;;19.75;12.75;;;;;;;7.43;68.91;101012.27;1736504;81;20999;-64
2021/10/04 06:22:00;;;;;;;15.60;11.83;;;;;;;7.50;69.19;101010.03;1733332;81;21577;-63
2021/10/04 06:24:26;;;;;;;17.67;12.80;;;;;;;7.66;68.94;101008.58;1735172;81;21714;-63
2021/10/04 06:26:53;;;;;;;17.40;13.27;;;;;;;7.75;68.69;101002.81;1736370;81;21735;-63
2021/10/04 06:29:20;;;;;;;16.42;12.93;;;;;;;7.76;68.66;101003.25;1741078;81;21550;-62
2021/10/04 06:31:47;;;;;;;17.02;13.45;;;;;;;7.81;68.64;101007.13;1734914;81;21404;-62
2021/10/04 06:34:13;;;;;;;21.62;14.95;;;;;;;7.84;68.39;101003.63;1741424;81;21494;-66
2021/10/04 06:36:40;;;;;;;18.57;14.40;;;;;;;7.86;68.30;101007.95;1725050;81;21014;-66
2021/10/04 06:39:07;;;;;;;19.37;14.40;;;;;;;7.88;68.29;101012.73;1734821;81;21984;-65
2021/10/04 06:41:33;;;;;;;16.07;11.95;;;;;;;7.91;68.05;101019.27;1734987;81;21065;-64
2021/10/04 06:44:00;;;;;;;20.55;13.18;;;;;;;8.00;68.26;101016.97;1734351;81;20990;-62
2021/10/04 06:46:27;;;;;;;16.87;12.43;;;;;;;8.17;68.64;101008.52;1742809;80;21065;-63
2021/10/04 06:48:54;;;;;;;18.92;12.70;;;;;;;8.29;68.48;101009.27;1723109;81;21503;-65
2021/10/04 06:51:20;;;;;;;16.62;12.98;;;;;;;8.36;68.27;101009.59;1736366;81;22013;-62
2021/10/04 06:53:47;;;;;;;21.07;14.13;;;;;;;8.44;68.04;101014.77;1737336;81;21500;-61
2021/10/04 06:56:13;;;;;;;19.10;14.30;;;;;;;8.49;68.21;101011.66;1743362;79;21584;-65
2021/10/04 06:58:40;;;;;;;18.50;14.60;;;;;;;8.55;68.40;101009.84;1722492;81;21463;-62
2021/10/04 07:01:06;;;;;;;23.50;15.53;;;;;;;8.63;68.06;101011.05;1724961;80;21562;-61
2021/10/04 07:03:34;;;;;;;22.02;14.20;;;;;;;8.71;67.98;101016.19;1745955;81;21819;-59
2021/10/04 07:06:01;;;;;;;20.35;14.50;;;;;;;8.83;67.99;101013.84;1729825;81;21479;-62
2021/10/04 07:08:28;;;;;;;14.85;13.08;;;;;;;9.06;68.31;101013.50;1734433;80;21629;-61
2021/10/04 07:10:55;;;;;;;19.77;14.53;;;;;;;9.19;67.91;101012.42;1728887;81;21483;-60
2021/10/04 07:13:22;;;;;;;22.13;15.05;;;;;;;9.28;67.67;101015.37;1735860;81;21030;-59
2021/10/04 07:15:48;;;;;;;21.70;14.75;;;;;;;9.39;67.51;101021.77;1731233;81;22130;-61
2021/10/04 07:18:16;;;;;;;19.87;14.60;;;;;;;9.48;67.56;101019.00;1740130;79;21557;-61
2021/10/04 07:20:42;;;;;;;19.20;14.13;;;;;;;9.61;67.09;101015.73;1744658;80;21574;-62
2021/10/04 07:23:09;;;;;;;20.20;14.40;;;;;;;9.69;66.74;101016.00;1726940;81;21588;-63
2021/10/04 07:25:36;;;;;;;16.27;13.55;;;;;;;9.78;66.50;101016.75;1733657;81;21415;-61
2021/10/04 07:28:03;;;;;;;19.82;15.20;;;;;;;9.86;66.04;101013.07;1738343;80;22054;-61
2021/10/04 07:30:31;;;;;;;22.17;15.58;;;;;;;9.94;65.94;101011.62;1732999;81;21572;-60
2021/10/04 07:33:00;;;;;;;17.17;13.20;;;;;;;10.02;65.57;101018.93;1743495;81;21795;-62
2021/10/04 07:35:27;;;;;;;17.52;13.95;;;;;;;10.14;65.71;101011.25;1737539;81;21432;-61
2021/10/04 07:37:53;;;;;;;16.93;13.68;;;;;;;10.35;65.60;101011.31;1732958;80;21532;-63
2021/10/04 07:40:22;;;;;;;19.15;14.50;;;;;;;10.49;64.95;101009.28;1728650;80;21991;-63
2021/10/04 07:42:49;;;;;;;18.07;13.70;;;;;;;10.62;64.62;101007.69;1721841;81;21482;-64
2021/10/04 07:45:16;;;;;;;19.87;14.23;;;;;;;10.75;64.06;101005.20;1715883;81;21571;-65
2021/10/04 07:47:43;;;;;;;17.20;11.90;;;;;;;10.89;63.41;101008.41;1714298;81;21053;-67
2021/10/04 07:50:11;;;;;;;15.35;11.45;;;;;;;11.02;63.07;101008.11;1713468;82;21672;-66
2021/10/04 07:52:38;;;;;;;;;;;;;;;11.15;62.69;101002.13;1712571;81;21504;-61
2021/10/04 07:55:05;;;;;;;20.13;13.13;;;;;;;11.26;62.37;101008.89;1720702;82;20422;-62
2021/10/04 07:57:32;;;;;;;;;;;;;;;11.35;62.03;101010.41;1734221;81;21542;-61
2021/10/04 07:59:59;;;;;;;18.92;12.28;;;;;;;11.43;61.42;101004.53;1717322;81;20442;-65
2021/10/04 08:02:26;;;;;;;17.80;13.72;;;;;;;11.49;61.46;101014.05;1710528;81;21416;-62
2021/10/04 08:04:53;;;;;;;18.27;13.75;;;;;;;11.59;61.14;101002.83;1712873;82;21495;-65
2021/10/04 08:07:19;;;;;;;19.30;12.05;;;;;;;11.69;60.87;101001.20;1709367;82;21596;-63
2021/10/04 08:09:46;;;;;;;16.87;11.80;;;;;;;11.81;60.39;100999.16;1720682;81;21571;-64
2021/10/04 08:12:13;;;;;;;18.82;12.55;;;;;;;11.93;59.68;101004.15;1708697;82;21503;-64
2021/10/04 08:14:40;;;;;;;16.90;10.55;;;;;;;12.06;58.85;100998.95;1711662;82;20947;-62
2021/10/04 08:17:07;;;;;;;14.17;11.93;;;;;;;12.15;58.39;100998.28;1724694;81;21821;-61
2021/10/04 08:19:35;;;;;;;13.78;11.70;;;;;;;12.24;57.80;100992.32;1726847;81;21562;-62
2021/10/04 08:22:02;;;;;;;18.15;11.65;;;;;;;12.36;57.56;100995.05;1730587;82;22369;-63
2021/10/04 08:24:30;;;;;;;13.13;10.38;;;;;;;12.48;57.04;100994.30;1717810;80;21542;-61
2021/10/04 08:26:57;;;;;;;11.95;10.03;;;;;;;12.58;56.69;100990.46;1720450;81;21506;-61
2021/10/04 08:29:25;;;;;;;15.15;11.05;;;;;;;12.70;56.18;100990.57;1718249;82;21878;-65
2021/10/04 08:31:52;;;;;;;15.03;10.75;;;;;;;12.81;55.72;100985.83;1718188;80;21554;-62
2021/10/04 08:34:19;;;;;;;11.87;9.93;;;;;;;12.90;55.27;100981.56;1713816;81;21413;-62
2021/10/04 08:36:46;;;;;;;17.65;9.55;;;;;;;13.01;55.12;100990.00;1723259;82;21523;-62
2021/10/04 08:39:13;;;;;;;14.07;8.63;;;;;;;13.12;54.70;100987.50;1721427;81;21456;-61
2021/10/04 08:41:40;;;;;;;11.10;8.85;;;;;;;13.23;54.11;100991.98;1719493;81;21894;-61
2021/10/04 08:44:12;;;;;;;13.35;8.95;;;;;;;13.36;53.59;100995.98;1713465;81;21069;-63
2021/10/04 08:46:45;;;;;;;9.23;8.18;;;;;;;13.49;52.92;100997.77;1721919;80;21015;-62
2021/10/04 08:49:13;;;;;;;9.53;7.67;;;;;;;13.62;52.76;101000.40;1718757;80;21492;-65
2021/10/04 08:51:40;;;;;;;9.90;8.53;;;;;;;13.74;52.13;101003.54;1723320;81;21523;-66
2021/10/04 08:54:09;;;;;;;13.32;7.60;;;;;;;13.87;51.84;101002.66;1719870;81;21798;-68
2021/10/04 08:56:35;;;;;;;;;;;;;;;13.98;50.94;100998.72;1719105;81;21546;-68
2021/10/04 08:59:03;;;;;;;10.27;8.03;;;;;;;14.06;49.85;100990.98;1723356;81;20164;-68
2021/10/04 09:01:30;;;;;;;10.18;7.12;;;;;;;14.13;50.73;100989.37;1724812;81;21612;-66
2021/10/04 09:04:00;;;;;;;10.40;6.92;;;;;;;14.24;50.16;100988.99;1721469;81;21452;-67
2021/10/04 09:06:35;;;;;;;7.25;6.37;;;;;;;14.34;50.01;100982.89;1713358;81;21495;-67
2021/10/04 09:09:06;;;;;;;7.03;6.22;;;;;;;14.46;50.20;100991.68;1718299;80;21069;-70
2021/10/04 09:11:49;;;;;;;7.10;5.65;;;;;;;14.59;49.38;100988.15;1666965;84;21589;-67
2021/10/04 09:14:30;;;;;;;7.65;5.12;;;;;;;14.69;48.62;100989.54;1686706;82;21549;-65
2021/10/04 09:17:10;;;;;;;7.58;4.87;;;;;;;14.82;47.74;100987.72;1712821;81;21600;-66
2021/10/04 09:19:40;;;;;;;7.40;5.60;;;;;;;14.91;47.09;100987.37;1716174;81;21543;-66
2021/10/04 09:22:21;;;;;;;8.55;5.03;;;;;;;15.00;47.01;100980.38;1713723;81;21503;-67
2021/10/04 09:25:02;;;;;;;10.10;5.20;;;;;;;15.09;46.66;100980.48;1714110;80;21510;-65
2021/10/04 09:27:42;;;;;;;8.18;3.67;;;;;;;15.18;46.47;100982.30;1721980;81;21543;-64
2021/10/04 09:30:17;;;;;;;6.67;3.87;;;;;;;15.29;45.28;100984.48;1717694;81;21646;-69
2021/10/04 09:32:49;;;;;;;12.15;3.83;;;;;;;15.38;43.81;100973.98;1714526;81;21614;-65
2021/10/04 09:35:23;;;;;;;8.75;4.50;;;;;;;15.48;43.20;100968.71;1717035;81;21531;-67
2021/10/04 09:38:01;;;;;;;10.03;3.83;;;;;;;15.57;42.43;100964.78;1720267;81;21583;-65
2021/10/04 09:40:43;;;;;;;12.07;3.50;;;;;;;15.64;41.53;100966.73;1709276;80;21074;-68
2021/10/04 09:43:28;;;;;;;7.45;3.60;;;;;;;15.70;41.18;100960.68;1714852;81;21558;-66
2021/10/04 09:46:06;;;;;;;7.50;4.20;;;;;;;15.79;40.94;100963.44;1717963;80;22147;-67
2021/10/04 09:48:34;;;;;;;5.05;3.10;;;;;;;15.88;40.76;100951.11;1718317;81;21648;-67
2021/10/04 09:51:16;;;;;;;3.20;3.00;;;;;;;15.95;40.47;100955.22;1722131;80;21605;-69
2021/10/04 09:54:08;;;;;;;9.25;3.83;;;;;;;16.05;40.02;100952.13;1719171;82;21593;-65
2021/10/04 09:56:35;;;;;;;7.37;3.67;;;;;;;16.14;39.91;100953.04;1710496;81;21550;-68
2021/10/04 09:59:03;;;;;;;8.30;4.17;;;;;;;16.20;39.57;100947.92;1713762;80;21780;-67
2021/10/04 10:01:30;;;;;;;9.73;3.45;;;;;;;16.25;39.22;100952.56;1715950;81;21006;-67
2021/10/04 10:03:57;;;;;;;7.33;4.00;;;;;;;16.29;38.88;100956.34;1714011;81;21507;-67
2021/10/04 10:06:23;;;;;;;13.93;3.90;;;;;;;16.30;38.56;100953.22;1713821;82;21570;-68
2021/10/04 10:08:50;;;;;;;11.28;3.62;;;;;;;16.34;38.58;100944.18;1716783;80;21499;-68
2021/10/04 10:11:17;;;;;;;6.87;3.85;;;;;;;16.39;38.38;100934.22;1717396;81;21855;-69
2021/10/04 10:13:45;;;;;;;5.55;3.40;;;;;;;16.45;38.21;100930.42;1717924;81;21412;-69
2021/10/04 10:16:15;;;;;;;8.40;3.60;;;;;;;16.50;38.34;100939.00;1713353;82;21523;-68
2021/10/04 10:18:56;;;;;;;8.88;4.05;;;;;;;16.57;37.96;100931.16;1719502;81;21531;-69
2021/10/04 10:21:26;;;;;;;4.10;3.20;;;;;;;16.61;37.60;100927.89;1712426;81;21037;-68
2021/10/04 10:24:03;;;;;;;4.47;3.30;;;;;;;16.65;37.67;100929.45;1710958;81;21635;-68
2021/10/04 10:26:48;;;;;;;5.42;3.60;;;;;;;16.69;37.72;100933.23;1725672;81;21491;-67
2021/10/04 10:29:20;;;;;;;7.13;3.93;;;;;;;16.77;37.56;100930.21;1715616;82;21499;-69
2021/10/04 10:31:58;;;;;;;3.17;2.98;;;;;;;16.84;37.46;100926.81;1727354;80;21456;-70
2021/10/04 10:34:36;;;;;;;6.37;3.52;;;;;;;16.89;36.95;100922.99;1726392;80;21559;-70
2021/10/04 10:37:21;;;;;;;8.50;3.75;;;;;;;16.94;36.81;100920.12;1721890;81;21829;-65
2021/10/04 10:40:01;;;;;;;5.90;2.92;;;;;;;16.95;36.53;100924.48;1719019;80;21405;-66
2021/10/04 10:42:38;;;;;;;4.47;3.67;;;;;;;16.93;36.42;100918.39;1710707;81;21640;-68
2021/10/04 10:45:09;;;;;;;10.08;3.50;;;;;;;16.97;36.51;100917.78;1713337;80;21563;-66
2021/10/04 10:47:47;;;;;;;6.70;3.58;;;;;;;17.01;36.75;100922.00;1714923;82;21479;-66
2021/10/04 10:50:32;;;;;;;6.83;3.52;;;;;;;17.05;37.01;100912.48;1718476;81;21806;-67
2021/10/04 10:53:08;;;;;;;4.08;3.50;;;;;;;17.10;36.86;100910.47;1714341;81;21547;-69
2021/10/04 10:55:47;;;;;;;5.67;3.47;;;;;;;17.14;36.59;100913.84;1719998;80;21519;-69
2021/10/04 10:58:16;;;;;;;4.78;3.47;;;;;;;17.15;36.47;100909.38;1726340;81;21653;-67
2021/10/04 11:00:53;;;;;;;4.42;3.40;;;;;;;17.15;36.63;100912.88;1713803;81;21590;-70
2021/10/04 11:03:25;;;;;;;4.65;3.60;;;;;;;17.19;36.51;100915.77;1721623;81;21565;-68
2021/10/04 11:06:06;;;;;;;5.53;3.50;;;;;;;17.25;36.14;100914.16;1711901;82;21089;-68
2021/10/04 11:08:50;;;;;;;4.50;3.25;;;;;;;17.25;35.97;100911.95;1716394;80;21078;-66
2021/10/04 11:11:23;;;;;;;4.60;3.55;;;;;;;17.27;36.14;100904.75;1715847;81;21545;-66
2021/10/04 11:14:07;;;;;;;3.92;2.70;;;;;;;17.36;36.18;100897.64;1715219;81;21561;-66
2021/10/04 11:16:39;;;;;;;4.97;3.30;;;;;;;17.47;35.91;100900.61;1720492;81;21492;-66
2021/10/04 11:19:06;;;;;;;4.30;3.15;;;;;;;17.62;35.91;100891.45;1720145;81;21589;-67
2021/10/04 11:21:37;;;;;;;6.45;3.45;;;;;;;17.73;35.54;100891.75;1722373;81;21464;-68
2021/10/04 11:24:05;;;;;;;5.65;3.33;;;;;;;17.88;35.45;100890.11;1712430;82;21566;-68
2021/10/04 11:26:35;;;;;;;7.35;3.40;;;;;;;17.97;35.01;100893.61;1717501;82;21775;-67
2021/10/04 11:29:05;;;;;;;5.20;3.00;;;;;;;18.02;35.03;100886.70;1716254;82;21812;-67